sensor_id;sensor_type;location;lat;lon;timestamp;temperature;humidity
5346;DHT22;2695;49.444;11.054;2022-10-23T00:01:12;12.50;99.90
5346;DHT22;2695;49.444;11.054;2022-10-23T00:03:40;12.50;99.90
5346;DHT22;2695;49.444;11.054;2022-10-23T00:06:09;12.50;99.90
5346;DHT22;2695;49.444;11.054;2022-10-23T00:08:37;12.40;99.90
5346;DHT22;2695;49.444;11.054;2022-10-23T00:11:06;12.40;99.90
5346;DHT22;2695;49.444;11.054;2022-10-23T00:13:35;12.40;99.90
5346;DHT22;2695;49.444;11.054;2022-10-23T00:16:06;12.40;99.90
5346;DHT22;2695;49.444;11.054;2022-10-23T00:18:34;12.40;99.90
5346;DHT22;2695;49.444;11.054;2022-10-23T00:21:03;12.30;99.90
5346;DHT22;2695;49.444;11.054;2022-10-23T00:23:31;12.30;99.90
5346;DHT22;2695;49.444;11.054;2022-10-23T00:25:59;12.30;99.90
5346;DHT22;2695;49.444;11.054;2022-10-23T00:28:27;12.20;99.90
5346;DHT22;2695;49.444;11.054;2022-10-23T00:30:55;12.20;99.90
5346;DHT22;2695;49.444;11.054;2022-10-23T00:33:25;12.20;99.90
5346;DHT22;2695;49.444;11.054;2022-10-23T00:35:53;12.20;99.90
5346;DHT22;2695;49.444;11.054;2022-10-23T00:38:21;12.20;99.90
5346;DHT22;2695;49.444;11.054;2022-10-23T00:40:49;12.30;99.90
5346;DHT22;2695;49.444;11.054;2022-10-23T00:43:19;12.20;99.90
5346;DHT22;2695;49.444;11.054;2022-10-23T00:45:48;12.20;99.90
5346;DHT22;2695;49.444;11.054;2022-10-23T00:48:16;12.20;99.90
5346;DHT22;2695;49.444;11.054;2022-10-23T00:50:47;12.20;99.90
5346;DHT22;2695;49.444;11.054;2022-10-23T00:53:17;12.20;99.90
5346;DHT22;2695;49.444;11.054;2022-10-23T00:55:47;12.20;99.90
5346;DHT22;2695;49.444;11.054;2022-10-23T00:58:18;12.20;99.90
5346;DHT22;2695;49.444;11.054;2022-10-23T01:00:48;12.30;99.90
5346;DHT22;2695;49.444;11.054;2022-10-23T01:03:19;12.20;99.90
5346;DHT22;2695;49.444;11.054;2022-10-23T01:05:54;12.20;99.90
5346;DHT22;2695;49.444;11.054;2022-10-23T01:08:29;12.20;99.90
5346;DHT22;2695;49.444;11.054;2022-10-23T01:11:06;12.10;99.90
5346;DHT22;2695;49.444;11.054;2022-10-23T01:13:41;12.10;99.90
5346;DHT22;2695;49.444;11.054;2022-10-23T01:16:14;12.10;99.90
5346;DHT22;2695;49.444;11.054;2022-10-23T01:18:46;12.10;99.90
5346;DHT22;2695;49.444;11.054;2022-10-23T01:21:21;12.10;99.90
5346;DHT22;2695;49.444;11.054;2022-10-23T01:24:09;12.00;99.90
5346;DHT22;2695;49.444;11.054;2022-10-23T01:27:10;12.00;99.90
5346;DHT22;2695;49.444;11.054;2022-10-23T01:29:41;12.00;99.90
5346;DHT22;2695;49.444;11.054;2022-10-23T01:32:13;12.00;99.90
5346;DHT22;2695;49.444;11.054;2022-10-23T01:34:46;11.90;99.90
5346;DHT22;2695;49.444;11.054;2022-10-23T01:37:20;11.90;99.90
5346;DHT22;2695;49.444;11.054;2022-10-23T01:39:52;11.90;99.90
5346;DHT22;2695;49.444;11.054;2022-10-23T01:42:26;11.90;99.90
5346;DHT22;2695;49.444;11.054;2022-10-23T01:44:59;12.00;99.90
5346;DHT22;2695;49.444;11.054;2022-10-23T01:47:32;11.90;99.90
5346;DHT22;2695;49.444;11.054;2022-10-23T01:50:03;11.90;99.90
5346;DHT22;2695;49.444;11.054;2022-10-23T01:52:33;11.90;99.90
5346;DHT22;2695;49.444;11.054;2022-10-23T01:55:01;11.90;99.90
5346;DHT22;2695;49.444;11.054;2022-10-23T01:57:31;11.90;99.90
5346;DHT22;2695;49.444;11.054;2022-10-23T02:00:04;12.00;99.90
5346;DHT22;2695;49.444;11.054;2022-10-23T02:02:35;11.90;99.90
5346;DHT22;2695;49.444;11.054;2022-10-23T02:05:06;11.90;99.90
5346;DHT22;2695;49.444;11.054;2022-10-23T02:07:35;11.80;99.90
5346;DHT22;2695;49.444;11.054;2022-10-23T02:10:05;11.90;99.90
5346;DHT22;2695;49.444;11.054;2022-10-23T02:12:39;11.80;99.90
5346;DHT22;2695;49.444;11.054;2022-10-23T02:15:13;11.80;99.90
5346;DHT22;2695;49.444;11.054;2022-10-23T02:17:50;11.80;99.90
5346;DHT22;2695;49.444;11.054;2022-10-23T02:20:24;11.80;99.90
5346;DHT22;2695;49.444;11.054;2022-10-23T02:22:58;11.70;99.90
5346;DHT22;2695;49.444;11.054;2022-10-23T02:25:32;11.70;99.90
5346;DHT22;2695;49.444;11.054;2022-10-23T02:28:07;11.40;99.90
5346;DHT22;2695;49.444;11.054;2022-10-23T02:30:40;11.60;99.90
5346;DHT22;2695;49.444;11.054;2022-10-23T02:33:11;11.60;99.90
5346;DHT22;2695;49.444;11.054;2022-10-23T02:35:40;11.50;99.90
5346;DHT22;2695;49.444;11.054;2022-10-23T02:38:30;11.60;99.90
5346;DHT22;2695;49.444;11.054;2022-10-23T02:41:11;11.60;99.90
5346;DHT22;2695;49.444;11.054;2022-10-23T02:43:48;11.60;99.90
5346;DHT22;2695;49.444;11.054;2022-10-23T02:46:24;11.50;99.90
5346;DHT22;2695;49.444;11.054;2022-10-23T02:48:57;11.50;99.90
5346;DHT22;2695;49.444;11.054;2022-10-23T02:51:32;11.50;99.90
5346;DHT22;2695;49.444;11.054;2022-10-23T02:54:04;11.50;99.90
5346;DHT22;2695;49.444;11.054;2022-10-23T02:56:38;11.40;99.90
5346;DHT22;2695;49.444;11.054;2022-10-23T02:59:12;11.50;99.90
5346;DHT22;2695;49.444;11.054;2022-10-23T03:01:47;11.40;99.90
5346;DHT22;2695;49.444;11.054;2022-10-23T03:04:19;11.40;99.90
5346;DHT22;2695;49.444;11.054;2022-10-23T03:06:49;11.40;99.90
5346;DHT22;2695;49.444;11.054;2022-10-23T03:09:18;11.20;99.90
5346;DHT22;2695;49.444;11.054;2022-10-23T03:11:46;11.20;99.90
5346;DHT22;2695;49.444;11.054;2022-10-23T03:14:16;11.20;99.90
5346;DHT22;2695;49.444;11.054;2022-10-23T03:16:44;11.10;99.90
5346;DHT22;2695;49.444;11.054;2022-10-23T03:19:12;11.10;99.90
5346;DHT22;2695;49.444;11.054;2022-10-23T03:21:40;11.10;99.90
5346;DHT22;2695;49.444;11.054;2022-10-23T03:24:08;11.10;99.90
5346;DHT22;2695;49.444;11.054;2022-10-23T03:26:36;11.10;99.90
5346;DHT22;2695;49.444;11.054;2022-10-23T03:29:04;11.10;99.90
5346;DHT22;2695;49.444;11.054;2022-10-23T03:31:33;11.10;99.90
5346;DHT22;2695;49.444;11.054;2022-10-23T03:34:02;11.10;99.90
5346;DHT22;2695;49.444;11.054;2022-10-23T03:36:35;11.20;99.90
5346;DHT22;2695;49.444;11.054;2022-10-23T03:39:03;11.10;99.90
5346;DHT22;2695;49.444;11.054;2022-10-23T03:41:32;11.10;99.90
5346;DHT22;2695;49.444;11.054;2022-10-23T03:44:00;11.00;99.90
5346;DHT22;2695;49.444;11.054;2022-10-23T03:46:28;11.00;99.90
5346;DHT22;2695;49.444;11.054;2022-10-23T03:48:57;11.00;99.90
5346;DHT22;2695;49.444;11.054;2022-10-23T03:51:26;11.10;99.90
5346;DHT22;2695;49.444;11.054;2022-10-23T03:53:54;11.10;99.90
5346;DHT22;2695;49.444;11.054;2022-10-23T03:56:22;11.10;99.90
5346;DHT22;2695;49.444;11.054;2022-10-23T03:58:50;11.10;99.90
5346;DHT22;2695;49.444;11.054;2022-10-23T04:01:18;11.10;99.90
5346;DHT22;2695;49.444;11.054;2022-10-23T04:03:46;11.10;99.90
5346;DHT22;2695;49.444;11.054;2022-10-23T04:06:16;11.10;99.90
5346;DHT22;2695;49.444;11.054;2022-10-23T04:08:44;11.10;99.90
5346;DHT22;2695;49.444;11.054;2022-10-23T04:11:12;11.10;99.90
5346;DHT22;2695;49.444;11.054;2022-10-23T04:13:40;11.10;99.90
5346;DHT22;2695;49.444;11.054;2022-10-23T04:16:08;11.10;99.90
5346;DHT22;2695;49.444;11.054;2022-10-23T04:18:38;11.10;99.90
5346;DHT22;2695;49.444;11.054;2022-10-23T04:21:06;11.00;99.90
5346;DHT22;2695;49.444;11.054;2022-10-23T04:23:36;11.00;99.90
5346;DHT22;2695;49.444;11.054;2022-10-23T04:26:04;11.00;99.90
5346;DHT22;2695;49.444;11.054;2022-10-23T04:28:33;11.00;99.90
5346;DHT22;2695;49.444;11.054;2022-10-23T04:31:01;11.00;99.90
5346;DHT22;2695;49.444;11.054;2022-10-23T04:33:29;11.00;99.90
5346;DHT22;2695;49.444;11.054;2022-10-23T04:35:57;11.00;99.90
5346;DHT22;2695;49.444;11.054;2022-10-23T04:38:25;10.90;99.90
5346;DHT22;2695;49.444;11.054;2022-10-23T04:40:54;10.90;99.90
5346;DHT22;2695;49.444;11.054;2022-10-23T04:43:22;10.80;99.90
5346;DHT22;2695;49.444;11.054;2022-10-23T04:45:50;10.80;99.90
5346;DHT22;2695;49.444;11.054;2022-10-23T04:48:18;10.80;99.90
5346;DHT22;2695;49.444;11.054;2022-10-23T04:50:55;10.80;99.90
5346;DHT22;2695;49.444;11.054;2022-10-23T04:53:24;10.90;99.90
5346;DHT22;2695;49.444;11.054;2022-10-23T04:55:55;10.80;99.90
5346;DHT22;2695;49.444;11.054;2022-10-23T04:58:24;10.80;99.90
5346;DHT22;2695;49.444;11.054;2022-10-23T05:00:53;10.80;99.90
5346;DHT22;2695;49.444;11.054;2022-10-23T05:03:22;10.80;99.90
5346;DHT22;2695;49.444;11.054;2022-10-23T05:05:52;10.80;99.90
5346;DHT22;2695;49.444;11.054;2022-10-23T05:08:21;10.70;99.90
5346;DHT22;2695;49.444;11.054;2022-10-23T05:10:49;10.70;99.90
5346;DHT22;2695;49.444;11.054;2022-10-23T05:13:19;10.70;99.90
5346;DHT22;2695;49.444;11.054;2022-10-23T05:15:48;10.70;99.90
5346;DHT22;2695;49.444;11.054;2022-10-23T05:18:19;10.70;99.90
5346;DHT22;2695;49.444;11.054;2022-10-23T05:20:49;10.70;99.90
5346;DHT22;2695;49.444;11.054;2022-10-23T05:23:20;10.70;99.90
5346;DHT22;2695;49.444;11.054;2022-10-23T05:25:49;10.70;99.90
5346;DHT22;2695;49.444;11.054;2022-10-23T05:28:19;10.70;99.90
5346;DHT22;2695;49.444;11.054;2022-10-23T05:30:47;10.90;99.90
5346;DHT22;2695;49.444;11.054;2022-10-23T05:33:15;10.70;99.90
5346;DHT22;2695;49.444;11.054;2022-10-23T05:35:44;10.70;99.90
5346;DHT22;2695;49.444;11.054;2022-10-23T05:38:12;10.70;99.90
5346;DHT22;2695;49.444;11.054;2022-10-23T05:40:41;10.70;99.90
5346;DHT22;2695;49.444;11.054;2022-10-23T05:43:09;10.70;99.90
5346;DHT22;2695;49.444;11.054;2022-10-23T05:45:38;10.70;99.90
5346;DHT22;2695;49.444;11.054;2022-10-23T05:48:07;10.70;99.90
5346;DHT22;2695;49.444;11.054;2022-10-23T05:50:47;10.70;99.90
5346;DHT22;2695;49.444;11.054;2022-10-23T05:53:16;10.70;99.90
5346;DHT22;2695;49.444;11.054;2022-10-23T05:55:44;10.70;99.90
5346;DHT22;2695;49.444;11.054;2022-10-23T05:58:12;10.70;99.90
5346;DHT22;2695;49.444;11.054;2022-10-23T06:00:41;10.70;99.90
5346;DHT22;2695;49.444;11.054;2022-10-23T06:03:09;10.80;99.90
5346;DHT22;2695;49.444;11.054;2022-10-23T06:05:37;11.00;99.90
5346;DHT22;2695;49.444;11.054;2022-10-23T06:08:10;11.20;99.90
5346;DHT22;2695;49.444;11.054;2022-10-23T06:10:38;11.60;99.90
5346;DHT22;2695;49.444;11.054;2022-10-23T06:13:06;12.00;99.90
5346;DHT22;2695;49.444;11.054;2022-10-23T06:15:37;12.30;99.90
5346;DHT22;2695;49.444;11.054;2022-10-23T06:18:06;12.90;99.90
5346;DHT22;2695;49.444;11.054;2022-10-23T06:20:35;13.50;99.90
5346;DHT22;2695;49.444;11.054;2022-10-23T06:23:04;14.00;99.90
5346;DHT22;2695;49.444;11.054;2022-10-23T06:25:32;14.10;99.90
5346;DHT22;2695;49.444;11.054;2022-10-23T06:28:00;14.20;99.90
5346;DHT22;2695;49.444;11.054;2022-10-23T06:30:28;14.30;99.90
5346;DHT22;2695;49.444;11.054;2022-10-23T06:32:56;14.50;99.90
5346;DHT22;2695;49.444;11.054;2022-10-23T06:35:31;15.00;99.90
5346;DHT22;2695;49.444;11.054;2022-10-23T06:37:59;15.90;99.90
5346;DHT22;2695;49.444;11.054;2022-10-23T06:40:31;16.60;99.90
5346;DHT22;2695;49.444;11.054;2022-10-23T06:42:59;16.90;99.90
5346;DHT22;2695;49.444;11.054;2022-10-23T06:45:28;17.30;99.90
5346;DHT22;2695;49.444;11.054;2022-10-23T06:47:58;17.90;99.90
5346;DHT22;2695;49.444;11.054;2022-10-23T06:50:26;18.40;99.90
5346;DHT22;2695;49.444;11.054;2022-10-23T06:52:58;18.80;99.90
5346;DHT22;2695;49.444;11.054;2022-10-23T06:55:26;18.90;99.90
5346;DHT22;2695;49.444;11.054;2022-10-23T06:57:54;18.70;99.90
5346;DHT22;2695;49.444;11.054;2022-10-23T07:00:22;18.40;99.90
5346;DHT22;2695;49.444;11.054;2022-10-23T07:02:51;17.60;99.90
5346;DHT22;2695;49.444;11.054;2022-10-23T07:05:19;16.90;99.90
5346;DHT22;2695;49.444;11.054;2022-10-23T07:07:47;16.20;99.90
5346;DHT22;2695;49.444;11.054;2022-10-23T07:10:17;15.70;99.90
5346;DHT22;2695;49.444;11.054;2022-10-23T07:12:45;15.40;99.90
5346;DHT22;2695;49.444;11.054;2022-10-23T07:15:14;15.20;99.90
5346;DHT22;2695;49.444;11.054;2022-10-23T07:17:43;15.40;99.90
5346;DHT22;2695;49.444;11.054;2022-10-23T07:20:11;15.70;99.90
5346;DHT22;2695;49.444;11.054;2022-10-23T07:22:40;16.10;99.90
5346;DHT22;2695;49.444;11.054;2022-10-23T07:25:08;16.60;99.90
5346;DHT22;2695;49.444;11.054;2022-10-23T07:27:38;17.50;99.90
5346;DHT22;2695;49.444;11.054;2022-10-23T07:30:07;18.30;99.90
5346;DHT22;2695;49.444;11.054;2022-10-23T07:32:35;18.90;99.90
5346;DHT22;2695;49.444;11.054;2022-10-23T07:35:04;19.50;99.90
5346;DHT22;2695;49.444;11.054;2022-10-23T07:37:32;20.10;99.90
5346;DHT22;2695;49.444;11.054;2022-10-23T07:40:00;20.10;99.90
5346;DHT22;2695;49.444;11.054;2022-10-23T07:42:28;20.30;99.90
5346;DHT22;2695;49.444;11.054;2022-10-23T07:44:58;20.40;99.90
5346;DHT22;2695;49.444;11.054;2022-10-23T07:47:26;20.60;99.90
5346;DHT22;2695;49.444;11.054;2022-10-23T07:49:54;21.10;99.90
5346;DHT22;2695;49.444;11.054;2022-10-23T07:52:22;21.60;99.90
5346;DHT22;2695;49.444;11.054;2022-10-23T07:54:50;21.80;99.90
5346;DHT22;2695;49.444;11.054;2022-10-23T07:57:18;22.00;99.90
5346;DHT22;2695;49.444;11.054;2022-10-23T07:59:47;22.20;99.90
5346;DHT22;2695;49.444;11.054;2022-10-23T08:02:16;21.90;99.90
5346;DHT22;2695;49.444;11.054;2022-10-23T08:04:47;21.50;99.90
5346;DHT22;2695;49.444;11.054;2022-10-23T08:07:15;21.30;99.90
5346;DHT22;2695;49.444;11.054;2022-10-23T08:09:43;21.30;99.90
5346;DHT22;2695;49.444;11.054;2022-10-23T08:12:11;21.30;99.90
5346;DHT22;2695;49.444;11.054;2022-10-23T08:14:40;21.20;99.90
5346;DHT22;2695;49.444;11.054;2022-10-23T08:17:08;21.20;99.90
5346;DHT22;2695;49.444;11.054;2022-10-23T08:19:38;21.20;99.90
5346;DHT22;2695;49.444;11.054;2022-10-23T08:22:06;20.70;99.90
5346;DHT22;2695;49.444;11.054;2022-10-23T08:24:34;20.20;99.90
5346;DHT22;2695;49.444;11.054;2022-10-23T08:27:02;19.70;99.90
5346;DHT22;2695;49.444;11.054;2022-10-23T08:29:30;19.20;99.90
5346;DHT22;2695;49.444;11.054;2022-10-23T08:31:58;18.70;99.90
5346;DHT22;2695;49.444;11.054;2022-10-23T08:34:26;18.50;99.90
5346;DHT22;2695;49.444;11.054;2022-10-23T08:36:56;18.70;99.90
5346;DHT22;2695;49.444;11.054;2022-10-23T08:39:24;19.40;99.90
5346;DHT22;2695;49.444;11.054;2022-10-23T08:41:52;20.10;99.90
5346;DHT22;2695;49.444;11.054;2022-10-23T08:44:22;20.70;99.90
5346;DHT22;2695;49.444;11.054;2022-10-23T08:46:58;20.80;99.90
5346;DHT22;2695;49.444;11.054;2022-10-23T08:49:35;20.60;99.90
5346;DHT22;2695;49.444;11.054;2022-10-23T08:52:14;20.30;99.90
5346;DHT22;2695;49.444;11.054;2022-10-23T08:54:55;20.10;99.90
5346;DHT22;2695;49.444;11.054;2022-10-23T08:57:26;20.00;99.90
5346;DHT22;2695;49.444;11.054;2022-10-23T09:00:00;20.10;99.90
5346;DHT22;2695;49.444;11.054;2022-10-23T09:02:34;20.30;99.90
5346;DHT22;2695;49.444;11.054;2022-10-23T09:05:12;20.50;99.90
5346;DHT22;2695;49.444;11.054;2022-10-23T09:07:55;20.30;99.90
5346;DHT22;2695;49.444;11.054;2022-10-23T09:10:36;20.20;99.90
5346;DHT22;2695;49.444;11.054;2022-10-23T09:13:30;20.20;99.90
5346;DHT22;2695;49.444;11.054;2022-10-23T09:16:05;20.60;99.90
5346;DHT22;2695;49.444;11.054;2022-10-23T09:18:33;21.30;99.90
5346;DHT22;2695;49.444;11.054;2022-10-23T09:21:08;21.70;99.90
5346;DHT22;2695;49.444;11.054;2022-10-23T09:23:37;21.60;99.90
5346;DHT22;2695;49.444;11.054;2022-10-23T09:26:11;21.40;99.90
5346;DHT22;2695;49.444;11.054;2022-10-23T09:28:44;21.30;99.90
5346;DHT22;2695;49.444;11.054;2022-10-23T09:31:13;21.20;99.90
5346;DHT22;2695;49.444;11.054;2022-10-23T09:33:51;21.30;99.90
5346;DHT22;2695;49.444;11.054;2022-10-23T09:36:20;21.60;99.90
5346;DHT22;2695;49.444;11.054;2022-10-23T09:38:53;21.50;99.90
5346;DHT22;2695;49.444;11.054;2022-10-23T09:41:25;21.50;99.90
5346;DHT22;2695;49.444;11.054;2022-10-23T09:44:05;21.60;99.90
5346;DHT22;2695;49.444;11.054;2022-10-23T09:46:37;21.90;99.90
5346;DHT22;2695;49.444;11.054;2022-10-23T09:49:17;22.00;99.90
5346;DHT22;2695;49.444;11.054;2022-10-23T09:51:57;22.40;99.90
5346;DHT22;2695;49.444;11.054;2022-10-23T09:54:28;22.80;99.90
5346;DHT22;2695;49.444;11.054;2022-10-23T09:57:02;22.90;99.90
5346;DHT22;2695;49.444;11.054;2022-10-23T09:59:31;23.00;99.40
5346;DHT22;2695;49.444;11.054;2022-10-23T10:02:02;23.20;98.80
5346;DHT22;2695;49.444;11.054;2022-10-23T10:04:34;23.40;97.80
5346;DHT22;2695;49.444;11.054;2022-10-23T10:07:05;23.50;98.00
5346;DHT22;2695;49.444;11.054;2022-10-23T10:09:35;23.90;96.60
5346;DHT22;2695;49.444;11.054;2022-10-23T10:12:18;23.40;97.00
5346;DHT22;2695;49.444;11.054;2022-10-23T10:14:57;23.10;97.50
5346;DHT22;2695;49.444;11.054;2022-10-23T10:17:38;23.00;97.90
5346;DHT22;2695;49.444;11.054;2022-10-23T10:20:22;23.10;97.80
5346;DHT22;2695;49.444;11.054;2022-10-23T10:22:56;23.00;97.70
5346;DHT22;2695;49.444;11.054;2022-10-23T10:25:31;22.70;98.10
5346;DHT22;2695;49.444;11.054;2022-10-23T10:28:16;22.60;98.10
5346;DHT22;2695;49.444;11.054;2022-10-23T10:30:55;22.40;98.50
5346;DHT22;2695;49.444;11.054;2022-10-23T10:33:31;22.50;98.80
5346;DHT22;2695;49.444;11.054;2022-10-23T10:36:09;22.40;98.60
5346;DHT22;2695;49.444;11.054;2022-10-23T10:38:45;22.40;98.50
5346;DHT22;2695;49.444;11.054;2022-10-23T10:41:27;22.50;98.60
5346;DHT22;2695;49.444;11.054;2022-10-23T10:44:14;22.40;98.50
5346;DHT22;2695;49.444;11.054;2022-10-23T10:46:47;22.00;98.90
5346;DHT22;2695;49.444;11.054;2022-10-23T10:49:26;21.70;99.30
5346;DHT22;2695;49.444;11.054;2022-10-23T10:52:02;22.10;99.20
5346;DHT22;2695;49.444;11.054;2022-10-23T10:54:42;22.60;98.20
5346;DHT22;2695;49.444;11.054;2022-10-23T10:57:26;22.70;97.90
5346;DHT22;2695;49.444;11.054;2022-10-23T10:59:59;22.70;98.10
5346;DHT22;2695;49.444;11.054;2022-10-23T11:02:30;22.90;97.70
5346;DHT22;2695;49.444;11.054;2022-10-23T11:05:09;22.90;98.10
5346;DHT22;2695;49.444;11.054;2022-10-23T11:07:41;22.70;98.00
5346;DHT22;2695;49.444;11.054;2022-10-23T11:10:17;22.60;98.20
5346;DHT22;2695;49.444;11.054;2022-10-23T11:12:50;22.80;98.10
5346;DHT22;2695;49.444;11.054;2022-10-23T11:15:22;22.80;98.20
5346;DHT22;2695;49.444;11.054;2022-10-23T11:17:55;22.80;97.90
5346;DHT22;2695;49.444;11.054;2022-10-23T11:20:36;22.80;97.70
5346;DHT22;2695;49.444;11.054;2022-10-23T11:23:33;22.70;98.00
5346;DHT22;2695;49.444;11.054;2022-10-23T11:26:22;22.60;97.90
5346;DHT22;2695;49.444;11.054;2022-10-23T11:29:17;22.60;97.80
5346;DHT22;2695;49.444;11.054;2022-10-23T11:32:00;22.40;98.10
5346;DHT22;2695;49.444;11.054;2022-10-23T11:34:48;22.30;98.70
5346;DHT22;2695;49.444;11.054;2022-10-23T11:37:23;22.20;98.70
5346;DHT22;2695;49.444;11.054;2022-10-23T11:40:03;22.00;98.90
5346;DHT22;2695;49.444;11.054;2022-10-23T11:42:53;21.90;99.20
5346;DHT22;2695;49.444;11.054;2022-10-23T11:45:31;21.50;99.70
5346;DHT22;2695;49.444;11.054;2022-10-23T11:48:02;21.30;99.90
5346;DHT22;2695;49.444;11.054;2022-10-23T11:50:33;21.30;99.90
5346;DHT22;2695;49.444;11.054;2022-10-23T11:53:23;21.40;99.90
5346;DHT22;2695;49.444;11.054;2022-10-23T11:56:19;21.60;99.90
5346;DHT22;2695;49.444;11.054;2022-10-23T11:58:57;21.70;99.90
5346;DHT22;2695;49.444;11.054;2022-10-23T12:01:33;21.70;99.90
5346;DHT22;2695;49.444;11.054;2022-10-23T12:04:21;21.70;99.90
5346;DHT22;2695;49.444;11.054;2022-10-23T12:06:52;21.70;99.90
5346;DHT22;2695;49.444;11.054;2022-10-23T12:09:27;21.50;99.90
5346;DHT22;2695;49.444;11.054;2022-10-23T12:12:12;21.20;99.90
5346;DHT22;2695;49.444;11.054;2022-10-23T12:14:45;21.20;99.90
5346;DHT22;2695;49.444;11.054;2022-10-23T12:17:34;21.20;99.90
5346;DHT22;2695;49.444;11.054;2022-10-23T12:20:26;21.10;99.90
5346;DHT22;2695;49.444;11.054;2022-10-23T12:23:11;21.20;99.90
5346;DHT22;2695;49.444;11.054;2022-10-23T12:25:50;21.40;99.90
5346;DHT22;2695;49.444;11.054;2022-10-23T12:28:32;21.50;99.90
5346;DHT22;2695;49.444;11.054;2022-10-23T12:31:21;21.60;99.90
5346;DHT22;2695;49.444;11.054;2022-10-23T12:33:59;21.80;99.90
5346;DHT22;2695;49.444;11.054;2022-10-23T12:36:48;21.90;99.90
5346;DHT22;2695;49.444;11.054;2022-10-23T12:39:26;21.70;99.90
5346;DHT22;2695;49.444;11.054;2022-10-23T12:41:58;21.70;99.60
5346;DHT22;2695;49.444;11.054;2022-10-23T12:44:31;21.40;99.90
5346;DHT22;2695;49.444;11.054;2022-10-23T12:47:18;21.20;99.90
5346;DHT22;2695;49.444;11.054;2022-10-23T12:49:49;21.10;99.90
5346;DHT22;2695;49.444;11.054;2022-10-23T12:52:21;21.10;99.90
5346;DHT22;2695;49.444;11.054;2022-10-23T12:54:54;21.00;99.90
5346;DHT22;2695;49.444;11.054;2022-10-23T12:57:24;20.90;99.90
5346;DHT22;2695;49.444;11.054;2022-10-23T12:59:56;20.90;99.90
5346;DHT22;2695;49.444;11.054;2022-10-23T13:02:26;20.80;99.90
5346;DHT22;2695;49.444;11.054;2022-10-23T13:05:00;20.80;99.90
5346;DHT22;2695;49.444;11.054;2022-10-23T13:07:31;20.80;99.90
5346;DHT22;2695;49.444;11.054;2022-10-23T13:10:04;20.70;99.90
5346;DHT22;2695;49.444;11.054;2022-10-23T13:12:37;20.70;99.90
5346;DHT22;2695;49.444;11.054;2022-10-23T13:15:16;20.70;99.90
5346;DHT22;2695;49.444;11.054;2022-10-23T13:17:46;20.70;99.90
5346;DHT22;2695;49.444;11.054;2022-10-23T13:20:24;20.70;99.90
5346;DHT22;2695;49.444;11.054;2022-10-23T13:22:58;20.70;99.90
5346;DHT22;2695;49.444;11.054;2022-10-23T13:25:29;20.70;99.90
5346;DHT22;2695;49.444;11.054;2022-10-23T13:28:11;20.50;99.90
5346;DHT22;2695;49.444;11.054;2022-10-23T13:30:40;20.40;99.90
5346;DHT22;2695;49.444;11.054;2022-10-23T13:33:22;20.50;99.90
5346;DHT22;2695;49.444;11.054;2022-10-23T13:35:58;20.50;99.90
5346;DHT22;2695;49.444;11.054;2022-10-23T13:38:28;20.40;99.90
5346;DHT22;2695;49.444;11.054;2022-10-23T13:40:59;20.50;99.90
5346;DHT22;2695;49.444;11.054;2022-10-23T13:43:33;20.50;99.90
5346;DHT22;2695;49.444;11.054;2022-10-23T13:46:13;20.40;99.90
5346;DHT22;2695;49.444;11.054;2022-10-23T13:48:49;20.30;99.90
5346;DHT22;2695;49.444;11.054;2022-10-23T13:51:22;20.20;99.90
5346;DHT22;2695;49.444;11.054;2022-10-23T13:53:50;20.10;99.90
5346;DHT22;2695;49.444;11.054;2022-10-23T13:56:20;20.10;99.90
5346;DHT22;2695;49.444;11.054;2022-10-23T13:58:49;20.10;99.90
5346;DHT22;2695;49.444;11.054;2022-10-23T14:01:21;20.10;99.90
5346;DHT22;2695;49.444;11.054;2022-10-23T14:03:50;20.10;99.90
5346;DHT22;2695;49.444;11.054;2022-10-23T14:06:20;19.90;99.90
5346;DHT22;2695;49.444;11.054;2022-10-23T14:08:51;19.80;99.90
5346;DHT22;2695;49.444;11.054;2022-10-23T14:11:21;19.70;99.90
5346;DHT22;2695;49.444;11.054;2022-10-23T14:13:49;19.50;99.90
5346;DHT22;2695;49.444;11.054;2022-10-23T14:16:19;19.60;99.90
5346;DHT22;2695;49.444;11.054;2022-10-23T14:18:48;19.50;99.90
5346;DHT22;2695;49.444;11.054;2022-10-23T14:21:20;19.40;99.90
5346;DHT22;2695;49.444;11.054;2022-10-23T14:23:49;19.40;99.90
5346;DHT22;2695;49.444;11.054;2022-10-23T14:26:21;19.40;99.90
5346;DHT22;2695;49.444;11.054;2022-10-23T14:28:52;19.40;99.90
5346;DHT22;2695;49.444;11.054;2022-10-23T14:31:20;19.30;99.90
5346;DHT22;2695;49.444;11.054;2022-10-23T14:33:51;19.30;99.90
5346;DHT22;2695;49.444;11.054;2022-10-23T14:36:23;19.30;99.90
5346;DHT22;2695;49.444;11.054;2022-10-23T14:39:04;19.30;99.90
5346;DHT22;2695;49.444;11.054;2022-10-23T14:41:32;19.20;99.90
5346;DHT22;2695;49.444;11.054;2022-10-23T14:44:01;19.10;99.90
5346;DHT22;2695;49.444;11.054;2022-10-23T14:46:29;19.00;99.90
5346;DHT22;2695;49.444;11.054;2022-10-23T14:48:58;19.00;99.90
5346;DHT22;2695;49.444;11.054;2022-10-23T14:51:32;19.00;99.90
5346;DHT22;2695;49.444;11.054;2022-10-23T14:54:02;19.00;99.90
5346;DHT22;2695;49.444;11.054;2022-10-23T14:56:34;18.90;99.90
5346;DHT22;2695;49.444;11.054;2022-10-23T14:59:03;18.90;99.90
5346;DHT22;2695;49.444;11.054;2022-10-23T15:01:34;18.80;99.90
5346;DHT22;2695;49.444;11.054;2022-10-23T15:04:06;18.80;99.90
5346;DHT22;2695;49.444;11.054;2022-10-23T15:06:38;18.70;99.90
5346;DHT22;2695;49.444;11.054;2022-10-23T15:09:07;18.80;99.90
5346;DHT22;2695;49.444;11.054;2022-10-23T15:11:35;18.70;99.90
5346;DHT22;2695;49.444;11.054;2022-10-23T15:14:03;18.60;99.90
5346;DHT22;2695;49.444;11.054;2022-10-23T15:16:31;18.60;99.90
5346;DHT22;2695;49.444;11.054;2022-10-23T15:19:07;18.60;99.90
5346;DHT22;2695;49.444;11.054;2022-10-23T15:21:44;18.50;99.90
5346;DHT22;2695;49.444;11.054;2022-10-23T15:24:15;18.30;99.90
5346;DHT22;2695;49.444;11.054;2022-10-23T15:26:43;18.20;99.90
5346;DHT22;2695;49.444;11.054;2022-10-23T15:29:12;18.10;99.90
5346;DHT22;2695;49.444;11.054;2022-10-23T15:31:47;18.10;99.90
5346;DHT22;2695;49.444;11.054;2022-10-23T15:34:18;18.00;99.90
5346;DHT22;2695;49.444;11.054;2022-10-23T15:36:48;18.00;99.90
5346;DHT22;2695;49.444;11.054;2022-10-23T15:39:19;17.90;99.90
5346;DHT22;2695;49.444;11.054;2022-10-23T15:41:50;17.80;99.90
5346;DHT22;2695;49.444;11.054;2022-10-23T15:44:20;17.80;99.90
5346;DHT22;2695;49.444;11.054;2022-10-23T15:46:48;17.80;99.90
5346;DHT22;2695;49.444;11.054;2022-10-23T15:49:18;17.70;99.90
5346;DHT22;2695;49.444;11.054;2022-10-23T15:51:47;17.60;99.90
5346;DHT22;2695;49.444;11.054;2022-10-23T15:54:17;17.60;99.90
5346;DHT22;2695;49.444;11.054;2022-10-23T15:56:47;17.50;99.90
5346;DHT22;2695;49.444;11.054;2022-10-23T15:59:17;17.50;99.90
5346;DHT22;2695;49.444;11.054;2022-10-23T16:01:47;17.50;99.90
5346;DHT22;2695;49.444;11.054;2022-10-23T16:04:16;17.50;99.90
5346;DHT22;2695;49.444;11.054;2022-10-23T16:06:44;17.50;99.90
5346;DHT22;2695;49.444;11.054;2022-10-23T16:09:14;17.50;99.90
5346;DHT22;2695;49.444;11.054;2022-10-23T16:11:43;17.50;99.90
5346;DHT22;2695;49.444;11.054;2022-10-23T16:14:12;17.50;99.90
5346;DHT22;2695;49.444;11.054;2022-10-23T16:16:41;17.50;99.90